createdAt,value
2022-09-22T00:01:42.819Z,82.44
2022-09-22T00:04:13.258Z,82.83
2022-09-22T00:06:48.547Z,83.11
2022-09-22T00:09:21.063Z,82.63
2022-09-22T00:11:53.985Z,83.16
2022-09-22T00:14:26.714Z,83.68
2022-09-22T00:17:01.183Z,83.91
2022-09-22T00:19:36.178Z,83.64
2022-09-22T00:22:07.862Z,83.40
2022-09-22T00:24:35.007Z,82.19
2022-09-22T00:27:02.231Z,82.42
2022-09-22T00:29:39.723Z,83.53
2022-09-22T00:32:07.547Z,84.55
2022-09-22T00:34:37.198Z,84.50
2022-09-22T00:37:03.951Z,84.79
2022-09-22T00:39:31.839Z,84.86
2022-09-22T00:42:01.067Z,85.05
2022-09-22T00:44:36.013Z,84.69
2022-09-22T00:47:32.121Z,85.30
2022-09-22T00:50:16.639Z,85.64
2022-09-22T00:52:56.249Z,85.50
2022-09-22T00:55:40.777Z,85.41
2022-09-22T00:58:16.777Z,85.59
2022-09-22T01:00:47.760Z,85.63
2022-09-22T01:03:23.157Z,85.73
2022-09-22T01:05:58.500Z,86.40
2022-09-22T01:08:31.382Z,86.75
2022-09-22T01:10:59.419Z,87.11
2022-09-22T01:13:32.233Z,87.22
2022-09-22T01:16:23.308Z,87.67
2022-09-22T01:19:14.043Z,88.03
2022-09-22T01:21:51.296Z,87.08
2022-09-22T01:24:42.435Z,86.35
2022-09-22T01:27:53.259Z,85.66
2022-09-22T01:30:24.580Z,85.03
2022-09-22T01:33:17.485Z,83.68
2022-09-22T01:36:30.430Z,83.81
2022-09-22T01:39:26.052Z,84.14
2022-09-22T01:42:07.521Z,82.85
2022-09-22T01:44:53.107Z,83.08
2022-09-22T01:47:28.289Z,83.08
2022-09-22T01:50:07.694Z,83.27
2022-09-22T01:52:39.812Z,82.42
2022-09-22T01:55:15.339Z,81.62
2022-09-22T01:57:55.605Z,81.73
2022-09-22T02:00:25.953Z,82.90
2022-09-22T02:03:17.131Z,82.48
2022-09-22T02:06:01.790Z,82.93
2022-09-22T02:09:07.506Z,82.79
2022-09-22T02:11:34.307Z,82.26
2022-09-22T02:14:04.220Z,82.74
2022-09-22T02:16:32.690Z,82.45
2022-09-22T02:19:13.472Z,82.44
2022-09-22T02:21:44.736Z,82.58
2022-09-22T02:24:37.672Z,82.52
2022-09-22T02:27:25.511Z,82.42
2022-09-22T02:30:00.872Z,81.94
2022-09-22T02:32:30.417Z,81.81
2022-09-22T02:34:58.252Z,81.61
2022-09-22T02:38:03.487Z,81.25
2022-09-22T02:40:58.434Z,81.46
2022-09-22T02:43:59.797Z,80.68
2022-09-22T02:46:39.692Z,80.59
2022-09-22T02:49:18.405Z,81.25
2022-09-22T02:51:59.872Z,82.31
2022-09-22T02:54:26.698Z,81.29
2022-09-22T02:56:54.376Z,80.80
2022-09-22T02:59:21.563Z,81.27
2022-09-22T03:01:49.763Z,81.06
2022-09-22T03:04:18.634Z,81.67
2022-09-22T03:06:45.333Z,81.48
2022-09-22T03:09:12.065Z,81.92
2022-09-22T03:11:39.205Z,82.23
2022-09-22T03:14:07.958Z,81.98
2022-09-22T03:16:34.694Z,81.47
2022-09-22T03:19:03.502Z,81.12
2022-09-22T03:21:30.254Z,81.93
2022-09-22T03:23:56.923Z,81.00
2022-09-22T03:26:23.698Z,81.13
2022-09-22T03:28:50.434Z,79.70
2022-09-22T03:31:17.147Z,80.53
2022-09-22T03:33:43.932Z,79.89
2022-09-22T03:36:10.547Z,81.42
2022-09-22T03:38:37.181Z,81.07
2022-09-22T03:41:04.303Z,80.91
2022-09-22T03:43:31.011Z,80.72
2022-09-22T03:46:02.910Z,81.00
2022-09-22T03:48:31.172Z,80.52
2022-09-22T03:51:09.142Z,80.17
2022-09-22T03:53:36.951Z,79.92
2022-09-22T03:56:16.888Z,80.33
2022-09-22T03:58:44.409Z,79.96
2022-09-22T04:01:12.203Z,81.41
2022-09-22T04:03:39.871Z,81.28
2022-09-22T04:06:08.937Z,81.54
2022-09-22T04:08:36.558Z,81.88
2022-09-22T04:11:04.590Z,81.91
2022-09-22T04:13:31.272Z,82.54
2022-09-22T04:15:57.947Z,81.34
2022-09-22T04:18:25.949Z,81.87
2022-09-22T04:20:57.863Z,82.17
2022-09-22T04:23:28.255Z,81.89
2022-09-22T04:25:55.145Z,80.80
2022-09-22T04:28:22.073Z,81.90
2022-09-22T04:30:49.377Z,82.49
2022-09-22T04:33:16.770Z,82.93
2022-09-22T04:35:43.495Z,83.00
2022-09-22T04:38:10.770Z,82.00
2022-09-22T04:40:37.977Z,82.98
2022-09-22T04:43:04.705Z,83.44
2022-09-22T04:45:33.141Z,82.67
2022-09-22T04:48:03.041Z,81.16
2022-09-22T04:50:29.660Z,81.69
2022-09-22T04:52:57.263Z,82.21
2022-09-22T04:55:25.528Z,82.80
2022-09-22T04:57:57.273Z,82.98
2022-09-22T05:00:27.570Z,83.47
2022-09-22T05:02:55.118Z,81.46
2022-09-22T05:05:24.499Z,80.86
2022-09-22T05:07:55.029Z,81.39
2022-09-22T05:10:25.363Z,82.35
2022-09-22T05:12:53.610Z,83.48
2022-09-22T05:15:22.530Z,83.56
2022-09-22T05:17:53.086Z,83.58
2022-09-22T05:20:22.627Z,83.74
2022-09-22T05:22:49.783Z,83.97
2022-09-22T05:25:19.530Z,83.57
2022-09-22T05:27:54.401Z,83.04
2022-09-22T05:30:25.713Z,83.14
2022-09-22T05:32:54.712Z,83.13
2022-09-22T05:35:24.637Z,82.78
2022-09-22T05:37:53.267Z,82.95
2022-09-22T05:40:23.753Z,82.78
2022-09-22T05:42:52.358Z,82.41
2022-09-22T05:45:21.712Z,83.02
2022-09-22T05:47:48.415Z,82.74
2022-09-22T05:50:17.975Z,82.62
2022-09-22T05:52:44.808Z,82.33
2022-09-22T05:55:13.327Z,81.74
2022-09-22T05:57:40.228Z,80.76
2022-09-22T06:00:08.836Z,80.93
2022-09-22T06:02:35.655Z,80.93
2022-09-22T06:05:02.468Z,80.58
2022-09-22T06:07:29.224Z,81.21
2022-09-22T06:09:55.828Z,81.18
2022-09-22T06:12:22.463Z,80.67
2022-09-22T06:14:49.039Z,80.78
2022-09-22T06:17:15.656Z,81.58
2022-09-22T06:19:43.158Z,81.57
2022-09-22T06:22:11.232Z,81.39
2022-09-22T06:24:38.050Z,81.35
2022-09-22T06:27:05.057Z,79.33
2022-09-22T06:29:31.754Z,80.84
2022-09-22T06:31:58.816Z,81.23
2022-09-22T06:34:27.146Z,80.85
2022-09-22T06:36:57.341Z,80.78
2022-09-22T06:39:26.224Z,79.76
2022-09-22T06:41:56.624Z,78.34
2022-09-22T06:44:23.364Z,78.89
2022-09-22T06:46:49.951Z,77.63
2022-09-22T06:49:16.559Z,77.73
2022-09-22T06:51:47.424Z,77.74
2022-09-22T06:54:14.470Z,77.54
2022-09-22T06:56:42.738Z,77.18
2022-09-22T06:59:12.810Z,77.55
2022-09-22T07:01:42.095Z,75.40
2022-09-22T07:04:10.540Z,75.70
2022-09-22T07:06:39.656Z,76.08
2022-09-22T07:09:11.447Z,76.21
2022-09-22T07:11:41.199Z,75.02
2022-09-22T07:14:08.854Z,76.31
2022-09-22T07:16:36.448Z,76.81
2022-09-22T07:19:05.803Z,74.91
2022-09-22T07:21:36.442Z,75.51
2022-09-22T07:24:05.611Z,76.06
2022-09-22T07:26:38.496Z,74.15
2022-09-22T07:29:11.817Z,74.65
2022-09-22T07:31:40.474Z,73.77
2022-09-22T07:34:07.264Z,74.02
2022-09-22T07:36:36.906Z,73.54
2022-09-22T07:39:11.120Z,73.53
2022-09-22T07:41:46.859Z,72.64
2022-09-22T07:44:33.893Z,72.19
2022-09-22T07:47:02.371Z,74.51
2022-09-22T07:49:29.851Z,71.55
2022-09-22T07:51:59.117Z,70.60
2022-09-22T07:54:27.646Z,72.53
2022-09-22T07:57:02.250Z,70.70
2022-09-22T07:59:28.957Z,71.15
2022-09-22T08:01:55.976Z,72.74
2022-09-22T08:04:23.811Z,72.16
2022-09-22T08:06:55.329Z,71.39
2022-09-22T08:09:26.316Z,71.47
2022-09-22T08:11:53.636Z,69.42
2022-09-22T08:14:23.465Z,71.46
2022-09-22T08:16:51.622Z,70.80
2022-09-22T08:19:18.673Z,71.14
2022-09-22T08:21:49.981Z,72.18
2022-09-22T08:24:22.856Z,71.69
2022-09-22T08:26:52.655Z,71.14
2022-09-22T08:29:20.568Z,72.27
2022-09-22T08:31:48.101Z,70.73
2022-09-22T08:34:18.526Z,69.90
2022-09-22T08:36:47.213Z,67.23
2022-09-22T08:39:15.634Z,70.00
2022-09-22T08:41:48.070Z,67.52
2022-09-22T08:44:23.834Z,69.12
2022-09-22T08:46:53.602Z,69.90
2022-09-22T08:49:54.054Z,67.52
2022-09-22T08:52:40.028Z,67.47
2022-09-22T08:55:24.581Z,67.11
2022-09-22T08:58:09.087Z,66.56
2022-09-22T09:01:20.733Z,67.09
2022-09-22T09:04:27.220Z,67.16
2022-09-22T09:07:15.546Z,67.01
2022-09-22T09:10:20.438Z,66.33
2022-09-22T09:13:08.570Z,66.57
2022-09-22T09:15:54.142Z,66.11
2022-09-22T09:18:32.246Z,66.71
2022-09-22T09:21:05.519Z,63.59
2022-09-22T09:26:35.456Z,64.68
2022-09-22T09:29:08.371Z,63.10
2022-09-22T09:31:53.280Z,64.08
2022-09-22T09:34:26.813Z,63.85
2022-09-22T09:37:07.699Z,64.69
2022-09-22T09:39:39.005Z,63.12
2022-09-22T09:42:20.120Z,61.71
2022-09-22T09:44:53.665Z,62.93
2022-09-22T09:47:43.086Z,62.80
2022-09-22T09:50:13.408Z,64.19
2022-09-22T09:52:40.169Z,62.71
2022-09-22T09:55:27.262Z,60.08
2022-09-22T09:58:06.643Z,60.32
2022-09-22T10:00:52.747Z,57.20
2022-09-22T10:03:41.094Z,58.09
2022-09-22T10:06:10.975Z,59.31
2022-09-22T10:08:49.221Z,59.63
2022-09-22T10:11:15.969Z,59.29
2022-09-22T10:13:44.218Z,59.21
2022-09-22T10:16:26.965Z,58.92
2022-09-22T10:18:59.472Z,56.67
2022-09-22T10:21:28.113Z,58.66
2022-09-22T10:24:00.617Z,56.45
2022-09-22T10:26:29.322Z,56.04
2022-09-22T10:29:18.485Z,58.81
2022-09-22T10:32:17.034Z,58.61
2022-09-22T10:34:51.741Z,56.77
2022-09-22T10:37:27.736Z,59.06
2022-09-22T10:40:01.821Z,54.86
2022-09-22T10:42:45.376Z,54.53
2022-09-22T10:45:15.595Z,52.73
2022-09-22T10:48:08.955Z,53.97
2022-09-22T10:50:50.221Z,53.14
2022-09-22T10:53:32.322Z,51.89
2022-09-22T10:56:06.364Z,53.75
2022-09-22T10:59:16.110Z,49.20
2022-09-22T11:02:19.080Z,48.07
2022-09-22T11:06:03.840Z,48.13
2022-09-22T11:09:09.042Z,46.53
2022-09-22T11:12:22.432Z,46.13
2022-09-22T11:15:34.028Z,48.02
2022-09-22T11:18:23.077Z,49.35
2022-09-22T11:21:08.750Z,47.13
2022-09-22T11:23:59.184Z,45.21
2022-09-22T11:26:48.097Z,46.77
2022-09-22T11:29:59.291Z,46.24
2022-09-22T11:32:41.921Z,45.32
2022-09-22T11:35:44.161Z,46.56
2022-09-22T11:38:53.972Z,49.74
2022-09-22T11:41:54.779Z,50.07
2022-09-22T11:44:28.797Z,44.35
2022-09-22T11:47:26.103Z,47.27
2022-09-22T11:50:26.198Z,46.02
2022-09-22T11:53:27.638Z,47.93
2022-09-22T11:56:42.311Z,47.59
2022-09-22T11:59:52.987Z,44.31
2022-09-22T12:02:41.190Z,46.63
2022-09-22T12:05:22.884Z,47.30
2022-09-22T12:07:59.163Z,47.16
2022-09-22T12:10:42.623Z,49.30
2022-09-22T12:13:28.338Z,48.43
2022-09-22T12:16:10.536Z,46.60
2022-09-22T12:18:53.141Z,46.91
2022-09-22T12:21:37.923Z,47.52
2022-09-22T12:24:09.987Z,47.22
2022-09-22T12:26:41.106Z,47.35
2022-09-22T12:29:27.196Z,47.94
2022-09-22T12:31:58.897Z,49.92
2022-09-22T12:34:39.864Z,50.88
2022-09-22T12:37:13.274Z,53.13
2022-09-22T12:39:49.913Z,49.63
2022-09-22T12:42:36.018Z,51.91
2022-09-22T12:45:41.063Z,47.19
2022-09-22T12:48:25.657Z,48.02
2022-09-22T12:51:31.306Z,49.53
2022-09-22T12:54:22.412Z,47.79
2022-09-22T12:57:10.675Z,48.83
2022-09-22T12:59:40.149Z,48.63
2022-09-22T13:02:16.012Z,45.36
2022-09-22T13:05:04.320Z,44.62
2022-09-22T13:07:44.363Z,43.67
2022-09-22T13:10:23.240Z,46.71
2022-09-22T13:13:05.651Z,45.15
2022-09-22T13:15:47.217Z,46.05
2022-09-22T13:18:35.704Z,44.98
2022-09-22T13:21:13.271Z,42.19
2022-09-22T13:24:00.205Z,49.41
2022-09-22T13:26:33.457Z,43.99
2022-09-22T13:29:19.166Z,42.94
2022-09-22T13:31:48.461Z,39.59
2022-09-22T13:34:34.335Z,42.43
2022-09-22T13:37:13.926Z,36.20
2022-09-22T13:39:49.865Z,35.31
2022-09-22T13:42:32.352Z,35.35
2022-09-22T13:45:07.767Z,35.20
2022-09-22T13:47:35.922Z,30.15
2022-09-22T13:50:08.562Z,35.89
2022-09-22T13:52:39.337Z,30.83
2022-09-22T13:55:14.950Z,25.71
2022-09-22T13:57:42.858Z,29.57
2022-09-22T14:00:27.009Z,28.33
2022-09-22T14:02:57.779Z,25.68
2022-09-22T14:05:35.102Z,23.73
2022-09-22T14:08:13.019Z,24.40
2022-09-22T14:10:43.425Z,26.04
2022-09-22T14:13:59.163Z,25.85
2022-09-22T14:16:42.566Z,23.15
2022-09-22T14:19:23.386Z,26.23
2022-09-22T14:21:59.884Z,23.49
2022-09-22T14:24:34.755Z,28.28
2022-09-22T14:27:07.311Z,23.38
2022-09-22T14:29:40.883Z,24.59
2022-09-22T14:32:22.666Z,26.25
2022-09-22T14:34:56.815Z,29.98
2022-09-22T14:37:36.440Z,31.53
2022-09-22T14:40:14.331Z,29.01
2022-09-22T14:42:41.453Z,30.62
2022-09-22T14:45:08.434Z,33.31
2022-09-22T14:47:42.805Z,31.20
2022-09-22T14:50:27.720Z,33.65
2022-09-22T14:53:13.779Z,36.38
2022-09-22T14:55:50.431Z,30.35
2022-09-22T14:58:27.257Z,30.84
2022-09-22T15:01:22.815Z,32.26
2022-09-22T15:04:17.251Z,31.71
2022-09-22T15:06:48.881Z,32.87
2022-09-22T15:09:29.273Z,34.76
2022-09-22T15:12:02.110Z,35.87
2022-09-22T15:14:35.133Z,37.86
2022-09-22T15:17:23.505Z,34.00
2022-09-22T15:19:57.099Z,35.81
2022-09-22T15:22:27.556Z,35.24
2022-09-22T15:24:57.722Z,33.78
2022-09-22T15:27:27.163Z,34.98
2022-09-22T15:29:56.055Z,35.73
2022-09-22T15:32:22.801Z,37.48
2022-09-22T15:34:50.439Z,36.97
2022-09-22T15:37:22.327Z,34.75
2022-09-22T15:39:49.562Z,36.42
2022-09-22T15:42:16.356Z,36.23
2022-09-22T15:44:44.150Z,36.57
2022-09-22T15:47:17.053Z,37.60
2022-09-22T15:49:45.081Z,33.56
2022-09-22T15:52:11.938Z,33.81
2022-09-22T15:54:38.618Z,36.66
2022-09-22T15:57:09.953Z,34.01
2022-09-22T15:59:36.948Z,38.09
2022-09-22T16:02:11.234Z,36.61
2022-09-22T16:04:37.923Z,37.39
2022-09-22T16:07:12.413Z,35.57
2022-09-22T16:09:39.283Z,36.78
2022-09-22T16:12:10.900Z,37.10
2022-09-22T16:14:39.706Z,36.17
2022-09-22T16:17:07.747Z,38.98
2022-09-22T16:19:35.182Z,40.68
2022-09-22T16:22:02.735Z,40.15
2022-09-22T16:24:30.150Z,40.88
2022-09-22T16:26:56.832Z,40.87
2022-09-22T16:29:25.046Z,44.87
2022-09-22T16:31:51.791Z,42.66
2022-09-22T16:34:21.282Z,43.41
2022-09-22T16:36:47.927Z,43.23
2022-09-22T16:39:14.531Z,42.67
2022-09-22T16:41:46.670Z,39.89
2022-09-22T16:44:13.764Z,43.84
2022-09-22T16:46:40.365Z,44.25
2022-09-22T16:49:12.824Z,42.71
2022-09-22T16:51:48.300Z,41.83
2022-09-22T16:54:16.330Z,41.64
2022-09-22T16:56:51.018Z,39.74
2022-09-22T16:59:21.529Z,38.59
2022-09-22T17:01:49.965Z,39.16
2022-09-22T17:04:21.191Z,41.76
2022-09-22T17:06:49.894Z,41.23
2022-09-22T17:09:17.524Z,42.73
2022-09-22T17:11:48.565Z,43.16
2022-09-22T17:14:22.037Z,42.93
2022-09-22T17:16:56.504Z,45.03
2022-09-22T17:19:26.635Z,45.15
2022-09-22T17:21:56.120Z,45.52
2022-09-22T17:24:25.614Z,46.51
2022-09-22T17:26:56.400Z,44.91
2022-09-22T17:29:26.720Z,45.91
2022-09-22T17:31:57.395Z,45.26
2022-09-22T17:34:28.444Z,45.91
2022-09-22T17:36:56.475Z,46.63
2022-09-22T17:39:24.140Z,47.75
2022-09-22T17:41:51.218Z,48.13
2022-09-22T17:44:21.453Z,47.00
2022-09-22T17:47:09.680Z,46.17
2022-09-22T17:49:56.622Z,47.85
2022-09-22T17:52:33.113Z,48.10
2022-09-22T17:55:08.024Z,50.77
2022-09-22T17:57:41.813Z,52.29
2022-09-22T18:00:20.898Z,50.40
2022-09-22T18:02:49.913Z,50.93
2022-09-22T18:05:22.155Z,51.67
2022-09-22T18:07:53.535Z,52.41
2022-09-22T18:10:20.835Z,51.20
2022-09-22T18:12:47.463Z,51.86
2022-09-22T18:15:15.018Z,52.34
2022-09-22T18:17:43.529Z,56.39
2022-09-22T18:20:14.488Z,57.72
2022-09-22T18:22:42.559Z,60.79
2022-09-22T18:25:10.497Z,59.56
2022-09-22T18:27:38.166Z,58.33
2022-09-22T18:30:06.232Z,59.94
2022-09-22T18:32:34.832Z,57.58
2022-09-22T18:35:05.384Z,58.07
2022-09-22T18:37:32.567Z,58.20
2022-09-22T18:40:01.590Z,59.59
2022-09-22T18:42:31.021Z,60.12
2022-09-22T18:44:57.647Z,60.01
2022-09-22T18:47:24.846Z,60.69
2022-09-22T18:49:53.785Z,62.43
2022-09-22T18:52:24.516Z,63.04
2022-09-22T18:54:54.497Z,63.83
2022-09-22T18:57:25.399Z,63.96
2022-09-22T18:59:57.691Z,64.45
2022-09-22T19:02:24.863Z,64.46
2022-09-22T19:04:51.689Z,64.97
2022-09-22T19:07:41.411Z,65.52
2022-09-22T19:10:12.823Z,66.15
2022-09-22T19:12:39.995Z,66.79
2022-09-22T19:15:13.902Z,66.67
2022-09-22T19:17:46.551Z,67.99
2022-09-22T19:20:23.246Z,67.83
2022-09-22T19:22:52.246Z,67.27
2022-09-22T19:25:21.385Z,67.34
2022-09-22T19:27:54.040Z,67.64
2022-09-22T19:30:25.792Z,67.03
2022-09-22T19:32:55.184Z,66.52
2022-09-22T19:35:22.060Z,66.76
2022-09-22T19:37:51.575Z,68.02
2022-09-22T19:40:25.584Z,67.43
2022-09-22T19:42:53.502Z,67.78
2022-09-22T19:45:23.822Z,66.70
2022-09-22T19:47:51.314Z,67.45
2022-09-22T19:50:19.144Z,69.02
2022-09-22T19:52:46.141Z,70.24
2022-09-22T19:55:13.157Z,70.31
2022-09-22T19:57:43.582Z,70.67
2022-09-22T20:00:25.799Z,70.92
2022-09-22T20:03:00.963Z,70.42
2022-09-22T20:05:36.831Z,70.34
2022-09-22T20:08:17.936Z,69.38
2022-09-22T20:10:48.228Z,69.06
2022-09-22T20:13:33.903Z,70.04
2022-09-22T20:16:01.900Z,70.03
2022-09-22T20:18:29.885Z,71.39
2022-09-22T20:20:57.332Z,71.39
2022-09-22T20:23:24.129Z,73.15
2022-09-22T20:25:52.067Z,72.15
2022-09-22T20:28:19.426Z,72.21
2022-09-22T20:30:46.113Z,71.86
2022-09-22T20:33:22.550Z,71.38
2022-09-22T20:35:52.466Z,70.92
2022-09-22T20:38:19.707Z,71.32
2022-09-22T20:40:48.511Z,73.10
2022-09-22T20:43:16.443Z,72.63
2022-09-22T20:45:44.444Z,72.89
2022-09-22T20:48:19.165Z,71.92
2022-09-22T20:50:58.134Z,72.04
2022-09-22T20:53:24.962Z,71.92
2022-09-22T20:56:03.242Z,73.96
2022-09-22T20:58:32.759Z,74.01
2022-09-22T21:01:04.068Z,73.36
2022-09-22T21:03:31.020Z,73.98
2022-09-22T21:06:02.630Z,72.77
2022-09-22T21:08:48.525Z,72.76
2022-09-22T21:11:18.399Z,72.52
2022-09-22T21:13:45.922Z,72.73
2022-09-22T21:16:13.890Z,72.91
2022-09-22T21:18:40.763Z,73.44
2022-09-22T21:21:08.218Z,73.10
2022-09-22T21:23:35.312Z,73.37
2022-09-22T21:26:07.713Z,73.21
2022-09-22T21:28:34.263Z,73.12
2022-09-22T21:31:05.193Z,73.79
2022-09-22T21:33:35.107Z,72.91
2022-09-22T21:36:14.814Z,73.55
2022-09-22T21:38:50.286Z,73.60
2022-09-22T21:41:20.716Z,72.66
2022-09-22T21:43:49.834Z,72.83
2022-09-22T21:46:20.124Z,73.27
2022-09-22T21:48:47.614Z,73.36
2022-09-22T21:51:22.283Z,73.55
2022-09-22T21:53:54.496Z,73.85
2022-09-22T21:56:25.225Z,73.89
2022-09-22T21:58:55.129Z,73.68
2022-09-22T22:01:25.184Z,73.10
2022-09-22T22:03:55.380Z,73.20
2022-09-22T22:06:24.077Z,74.46
2022-09-22T22:09:22.481Z,75.80
2022-09-22T22:11:57.460Z,75.49
2022-09-22T22:14:32.502Z,75.39
2022-09-22T22:17:01.160Z,75.28
2022-09-22T22:19:27.800Z,74.99
2022-09-22T22:21:54.692Z,74.78
2022-09-22T22:24:28.648Z,75.91
2022-09-22T22:27:07.670Z,76.24
2022-09-22T22:29:34.931Z,75.93
2022-09-22T22:32:07.282Z,76.52
2022-09-22T22:34:34.906Z,76.86
2022-09-22T22:37:01.842Z,76.79
2022-09-22T22:39:29.800Z,76.32
2022-09-22T22:41:56.407Z,76.28
2022-09-22T22:44:23.209Z,75.90
2022-09-22T22:46:50.522Z,75.41
2022-09-22T22:49:17.252Z,74.88
2022-09-22T22:51:44.012Z,76.06
2022-09-22T22:54:13.519Z,76.91
2022-09-22T22:56:42.470Z,76.51
2022-09-22T22:59:11.149Z,76.61
2022-09-22T23:01:40.251Z,76.47
2022-09-22T23:04:10.760Z,75.85
2022-09-22T23:06:41.731Z,76.00
2022-09-22T23:09:13.841Z,75.93
2022-09-22T23:11:42.271Z,75.85
2022-09-22T23:14:11.835Z,75.70
2022-09-22T23:16:45.964Z,75.76
2022-09-22T23:19:16.914Z,75.58
2022-09-22T23:21:45.228Z,75.93
2022-09-22T23:24:18.927Z,75.63
2022-09-22T23:26:46.393Z,76.00
2022-09-22T23:29:13.692Z,76.84
2022-09-22T23:31:40.280Z,76.43
2022-09-22T23:34:06.843Z,75.54
2022-09-22T23:36:33.385Z,75.54
2022-09-22T23:39:05.376Z,75.21
2022-09-22T23:41:36.163Z,75.61
2022-09-22T23:44:07.159Z,75.73
2022-09-22T23:46:34.199Z,75.57
2022-09-22T23:49:01.201Z,75.90
2022-09-22T23:51:28.379Z,75.74
2022-09-22T23:53:56.246Z,75.31
2022-09-22T23:56:23.467Z,75.99
2022-09-22T23:58:51.906Z,75.91
